BAW4CD EICK-EGJJ
Flight info
| Callsign | BAW4CD |
|---|---|
| Flight time | 0h 49m |
| Altitude | 23000 |
| Route | ERTER1N ERTER DCT LEDGO N160 EVCOR/N0454F330 DCT NAKID DCT LIZAD/N0396F190 N160 TUNIT |
| Aircraft | A319/M-SDE3FGHIRWY/LB1 |
Departure
| Time | 2026-05-05 11:21 |
|---|---|
| Airport | Cork International Airport (EICK) |
Arrival
| Time | 2026-05-05 12:11 |
|---|---|
| Airport | Jersey Airport (EGJJ) |
| Time | Latitude | Longitude | Altitude | Speed | Heading |
|---|---|---|---|---|---|
| 2026-05-05 11:10 | 51.84846 | -8.49055 | 513 ft | 0 kts | 70° |
| 2026-05-05 11:13 | 51.84845 | -8.49058 | 513 ft | 3 kts | 70° |
| 2026-05-05 11:13 | 51.84837 | -8.49098 | 511 ft | 3 kts | 70° |
| 2026-05-05 11:14 | 51.84838 | -8.49137 | 509 ft | 3 kts | 121° |
| 2026-05-05 11:14 | 51.84855 | -8.49157 | 509 ft | 0 kts | 165° |
| 2026-05-05 11:14 | 51.84855 | -8.49158 | 509 ft | 0 kts | 164° |
| 2026-05-05 11:16 | 51.84855 | -8.49157 | 509 ft | 0 kts | 164° |
| 2026-05-05 11:16 | 51.84845 | -8.49153 | 509 ft | 2 kts | 164° |
| 2026-05-05 11:17 | 51.84819 | -8.49152 | 508 ft | 5 kts | 194° |
| 2026-05-05 11:17 | 51.84760 | -8.49177 | 505 ft | 11 kts | 187° |
| 2026-05-05 11:17 | 51.84686 | -8.49140 | 503 ft | 12 kts | 161° |
| 2026-05-05 11:17 | 51.84596 | -8.49091 | 500 ft | 15 kts | 162° |
| 2026-05-05 11:18 | 51.84486 | -8.49036 | 497 ft | 18 kts | 165° |
| 2026-05-05 11:18 | 51.84359 | -8.49001 | 493 ft | 20 kts | 210° |
| 2026-05-05 11:18 | 51.84265 | -8.49178 | 486 ft | 22 kts | 192° |
| 2026-05-05 11:18 | 51.84113 | -8.49104 | 480 ft | 24 kts | 160° |
| 2026-05-05 11:19 | 51.83949 | -8.49007 | 474 ft | 25 kts | 160° |
| 2026-05-05 11:19 | 51.83783 | -8.48907 | 471 ft | 25 kts | 160° |
| 2026-05-05 11:19 | 51.83613 | -8.48803 | 468 ft | 25 kts | 160° |
| 2026-05-05 11:19 | 51.83448 | -8.48706 | 468 ft | 24 kts | 161° |
| 2026-05-05 11:20 | 51.83313 | -8.48595 | 468 ft | 16 kts | 131° |
| 2026-05-05 11:20 | 51.83267 | -8.48600 | 467 ft | 12 kts | 323° |
| 2026-05-05 11:20 | 51.83280 | -8.48608 | 468 ft | 0 kts | 340° |
| 2026-05-05 11:21 | 51.83331 | -8.48638 | 468 ft | 34 kts | 340° |
| 2026-05-05 11:21 | 51.83794 | -8.48915 | 471 ft | 104 kts | 340° |
| 2026-05-05 11:21 | 51.84651 | -8.49429 | 570 ft | 150 kts | 340° |
| 2026-05-05 11:21 | 51.85627 | -8.50003 | 1184 ft | 152 kts | 341° |
| 2026-05-05 11:22 | 51.86628 | -8.50548 | 1859 ft | 156 kts | 342° |
| 2026-05-05 11:22 | 51.87652 | -8.51059 | 2541 ft | 159 kts | 346° |
| 2026-05-05 11:22 | 51.88749 | -8.51188 | 3147 ft | 164 kts | 16° |
| 2026-05-05 11:22 | 51.89692 | -8.50104 | 3703 ft | 179 kts | 50° |
| 2026-05-05 11:23 | 51.90198 | -8.48165 | 4167 ft | 203 kts | 83° |
| 2026-05-05 11:23 | 51.89927 | -8.45825 | 4669 ft | 227 kts | 110° |
| 2026-05-05 11:23 | 51.89281 | -8.43392 | 5250 ft | 245 kts | 112° |
| 2026-05-05 11:23 | 51.88571 | -8.40851 | 5909 ft | 259 kts | 113° |
| 2026-05-05 11:24 | 51.87780 | -8.38129 | 6582 ft | 274 kts | 114° |
| 2026-05-05 11:24 | 51.86962 | -8.35312 | 7304 ft | 285 kts | 114° |
| 2026-05-05 11:24 | 51.86131 | -8.32412 | 8299 ft | 285 kts | 113° |
| 2026-05-05 11:24 | 51.85328 | -8.29550 | 9209 ft | 287 kts | 112° |
| 2026-05-05 11:25 | 51.84435 | -8.26635 | 9919 ft | 296 kts | 120° |
| 2026-05-05 11:25 | 51.83203 | -8.23971 | 10717 ft | 302 kts | 131° |
| 2026-05-05 11:25 | 51.81741 | -8.21441 | 11166 ft | 318 kts | 133° |
| 2026-05-05 11:25 | 51.80174 | -8.18796 | 11569 ft | 334 kts | 133° |
| 2026-05-05 11:26 | 51.78506 | -8.16022 | 11975 ft | 351 kts | 134° |
| 2026-05-05 11:26 | 51.76791 | -8.13180 | 12293 ft | 368 kts | 134° |
| 2026-05-05 11:26 | 51.74970 | -8.10176 | 12658 ft | 382 kts | 134° |
| 2026-05-05 11:26 | 51.72983 | -8.07327 | 13291 ft | 387 kts | 146° |
| 2026-05-05 11:27 | 51.70517 | -8.05529 | 13996 ft | 389 kts | 167° |
| 2026-05-05 11:27 | 51.67871 | -8.05243 | 14725 ft | 389 kts | 186° |
| 2026-05-05 11:27 | 51.65193 | -8.05770 | 15536 ft | 388 kts | 186° |
| 2026-05-05 11:27 | 51.62476 | -8.06067 | 16022 ft | 396 kts | 183° |
| 2026-05-05 11:28 | 51.59711 | -8.06158 | 16592 ft | 401 kts | 180° |
| 2026-05-05 11:28 | 51.56932 | -8.05714 | 17171 ft | 405 kts | 168° |
| 2026-05-05 11:28 | 51.54308 | -8.04186 | 17732 ft | 408 kts | 151° |
| 2026-05-05 11:28 | 51.52018 | -8.01506 | 18366 ft | 409 kts | 135° |
| 2026-05-05 11:29 | 51.50068 | -7.98207 | 19033 ft | 409 kts | 131° |
| 2026-05-05 11:29 | 51.48253 | -7.94693 | 19607 ft | 412 kts | 128° |
| 2026-05-05 11:29 | 51.46412 | -7.91165 | 20106 ft | 416 kts | 131° |
| 2026-05-05 11:29 | 51.44411 | -7.87795 | 20577 ft | 421 kts | 135° |
| 2026-05-05 11:30 | 51.42326 | -7.84579 | 21075 ft | 425 kts | 136° |
| 2026-05-05 11:30 | 51.40175 | -7.81328 | 21583 ft | 427 kts | 136° |
| 2026-05-05 11:30 | 51.38018 | -7.78075 | 22078 ft | 430 kts | 136° |
| 2026-05-05 11:30 | 51.35824 | -7.74755 | 22566 ft | 433 kts | 135° |
| 2026-05-05 11:31 | 51.33652 | -7.71457 | 23026 ft | 436 kts | 135° |
| 2026-05-05 11:31 | 51.31451 | -7.68115 | 23495 ft | 438 kts | 135° |
| 2026-05-05 11:31 | 51.29258 | -7.64783 | 23980 ft | 440 kts | 135° |
| 2026-05-05 11:31 | 51.27027 | -7.61402 | 24444 ft | 442 kts | 135° |
| 2026-05-05 11:32 | 51.24817 | -7.58051 | 24857 ft | 445 kts | 135° |
| 2026-05-05 11:32 | 51.22569 | -7.54650 | 25263 ft | 447 kts | 135° |
| 2026-05-05 11:32 | 51.20319 | -7.51253 | 25637 ft | 451 kts | 135° |
| 2026-05-05 11:32 | 51.18037 | -7.47814 | 26029 ft | 453 kts | 135° |
| 2026-05-05 11:33 | 51.15760 | -7.44387 | 26463 ft | 455 kts | 135° |
| 2026-05-05 11:33 | 51.13465 | -7.40933 | 26892 ft | 456 kts | 135° |
| 2026-05-05 11:33 | 51.11141 | -7.37443 | 27333 ft | 456 kts | 135° |
| 2026-05-05 11:33 | 51.08833 | -7.33986 | 27819 ft | 456 kts | 135° |
| 2026-05-05 11:34 | 51.06552 | -7.30571 | 28297 ft | 455 kts | 135° |
| 2026-05-05 11:34 | 51.04245 | -7.27121 | 28773 ft | 454 kts | 135° |
| 2026-05-05 11:34 | 51.01956 | -7.23705 | 29244 ft | 454 kts | 135° |
| 2026-05-05 11:34 | 50.99683 | -7.20316 | 29688 ft | 454 kts | 135° |
| 2026-05-05 11:35 | 50.97382 | -7.16890 | 30111 ft | 454 kts | 134° |
| 2026-05-05 11:35 | 50.95147 | -7.13383 | 30523 ft | 453 kts | 131° |
| 2026-05-05 11:35 | 50.93038 | -7.09701 | 30930 ft | 452 kts | 128° |
| 2026-05-05 11:35 | 50.91085 | -7.05881 | 31329 ft | 450 kts | 124° |
| 2026-05-05 11:36 | 50.89208 | -7.01888 | 31718 ft | 450 kts | 123° |
| 2026-05-05 11:36 | 50.87356 | -6.97927 | 32054 ft | 451 kts | 123° |
| 2026-05-05 11:36 | 50.85482 | -6.93931 | 32372 ft | 452 kts | 123° |
| 2026-05-05 11:36 | 50.83624 | -6.89977 | 32686 ft | 452 kts | 123° |
| 2026-05-05 11:37 | 50.81740 | -6.85979 | 32978 ft | 453 kts | 123° |
| 2026-05-05 11:37 | 50.77971 | -6.78004 | 33064 ft | 455 kts | 123° |
| 2026-05-05 11:38 | 50.74219 | -6.70094 | 33065 ft | 454 kts | 123° |
| 2026-05-05 11:38 | 50.70427 | -6.62120 | 33061 ft | 453 kts | 123° |
| 2026-05-05 11:39 | 50.66667 | -6.54242 | 33059 ft | 453 kts | 123° |
| 2026-05-05 11:39 | 50.62879 | -6.46327 | 33055 ft | 452 kts | 123° |
| 2026-05-05 11:40 | 50.59125 | -6.38508 | 33059 ft | 451 kts | 124° |
| 2026-05-05 11:40 | 50.55331 | -6.30628 | 33058 ft | 450 kts | 124° |
| 2026-05-05 11:41 | 50.51585 | -6.22868 | 33057 ft | 450 kts | 124° |
| 2026-05-05 11:41 | 50.47806 | -6.15069 | 33056 ft | 449 kts | 125° |
| 2026-05-05 11:42 | 50.44036 | -6.07306 | 33052 ft | 448 kts | 125° |
| 2026-05-05 11:42 | 50.40256 | -5.99550 | 33054 ft | 448 kts | 125° |
| 2026-05-05 11:43 | 50.36492 | -5.91847 | 33051 ft | 448 kts | 125° |
| 2026-05-05 11:43 | 50.32697 | -5.84102 | 33041 ft | 447 kts | 126° |
| 2026-05-05 11:44 | 50.28938 | -5.76457 | 33044 ft | 446 kts | 126° |
| 2026-05-05 11:44 | 50.25157 | -5.68790 | 33037 ft | 445 kts | 126° |
| 2026-05-05 11:45 | 50.21400 | -5.61190 | 33036 ft | 444 kts | 126° |
| 2026-05-05 11:45 | 50.17646 | -5.53620 | 33029 ft | 443 kts | 126° |
| 2026-05-05 11:46 | 50.13880 | -5.46049 | 33030 ft | 443 kts | 126° |
| 2026-05-05 11:46 | 50.10113 | -5.38494 | 33029 ft | 443 kts | 127° |
| 2026-05-05 11:47 | 50.06344 | -5.30962 | 33027 ft | 443 kts | 128° |
| 2026-05-05 11:47 | 50.02566 | -5.23431 | 33029 ft | 443 kts | 128° |
| 2026-05-05 11:48 | 49.96915 | -5.12203 | 32599 ft | 442 kts | 128° |
| 2026-05-05 11:48 | 49.95021 | -5.08451 | 32114 ft | 443 kts | 128° |
| 2026-05-05 11:48 | 49.93106 | -5.04666 | 31633 ft | 449 kts | 128° |
| 2026-05-05 11:49 | 49.91193 | -5.00889 | 31150 ft | 451 kts | 128° |
| 2026-05-05 11:49 | 49.89250 | -4.97056 | 30601 ft | 451 kts | 128° |
| 2026-05-05 11:49 | 49.87324 | -4.93264 | 30050 ft | 452 kts | 128° |
| 2026-05-05 11:49 | 49.85365 | -4.89412 | 29488 ft | 453 kts | 128° |
| 2026-05-05 11:50 | 49.83440 | -4.85630 | 28940 ft | 454 kts | 128° |
| 2026-05-05 11:50 | 49.81474 | -4.81773 | 28387 ft | 455 kts | 128° |
| 2026-05-05 11:50 | 49.79520 | -4.77946 | 27840 ft | 457 kts | 128° |
| 2026-05-05 11:50 | 49.77542 | -4.74081 | 27291 ft | 459 kts | 128° |
| 2026-05-05 11:51 | 49.75591 | -4.70273 | 26749 ft | 460 kts | 128° |
| 2026-05-05 11:51 | 49.73596 | -4.66386 | 26200 ft | 462 kts | 128° |
| 2026-05-05 11:51 | 49.71634 | -4.62425 | 25652 ft | 464 kts | 125° |
| 2026-05-05 11:51 | 49.69825 | -4.58368 | 25112 ft | 463 kts | 123° |
| 2026-05-05 11:52 | 49.68052 | -4.54196 | 24568 ft | 464 kts | 122° |
| 2026-05-05 11:52 | 49.66310 | -4.50095 | 24029 ft | 464 kts | 122° |
| 2026-05-05 11:52 | 49.64534 | -4.45920 | 23489 ft | 461 kts | 122° |
| 2026-05-05 11:52 | 49.62790 | -4.41827 | 22963 ft | 459 kts | 122° |
| 2026-05-05 11:53 | 49.61065 | -4.37732 | 22433 ft | 459 kts | 120° |
| 2026-05-05 11:53 | 49.59577 | -4.33383 | 21901 ft | 458 kts | 114° |
| 2026-05-05 11:53 | 49.58449 | -4.28854 | 21379 ft | 455 kts | 107° |
| 2026-05-05 11:53 | 49.57632 | -4.24156 | 20746 ft | 452 kts | 103° |
| 2026-05-05 11:54 | 49.56920 | -4.19500 | 19970 ft | 449 kts | 102° |
| 2026-05-05 11:54 | 49.56224 | -4.14849 | 19197 ft | 445 kts | 102° |
| 2026-05-05 11:54 | 49.55533 | -4.10242 | 18468 ft | 441 kts | 102° |
| 2026-05-05 11:54 | 49.54850 | -4.05719 | 17842 ft | 435 kts | 102° |
| 2026-05-05 11:55 | 49.54170 | -4.01243 | 17213 ft | 429 kts | 101° |
| 2026-05-05 11:55 | 49.53493 | -3.96815 | 16585 ft | 424 kts | 101° |
| 2026-05-05 11:55 | 49.52821 | -3.92447 | 15959 ft | 419 kts | 101° |
| 2026-05-05 11:55 | 49.52161 | -3.88169 | 15334 ft | 414 kts | 101° |
| 2026-05-05 11:56 | 49.51500 | -3.83901 | 14706 ft | 410 kts | 101° |
| 2026-05-05 11:56 | 49.50841 | -3.79665 | 14076 ft | 406 kts | 101° |
| 2026-05-05 11:56 | 49.50185 | -3.75455 | 13449 ft | 403 kts | 101° |
| 2026-05-05 11:56 | 49.49543 | -3.71335 | 12829 ft | 399 kts | 101° |
| 2026-05-05 11:57 | 49.48895 | -3.67197 | 12200 ft | 396 kts | 101° |
| 2026-05-05 11:57 | 49.48260 | -3.63143 | 11580 ft | 392 kts | 101° |
| 2026-05-05 11:57 | 49.47624 | -3.59108 | 10954 ft | 389 kts | 101° |
| 2026-05-05 11:57 | 49.46994 | -3.55115 | 10330 ft | 386 kts | 101° |
| 2026-05-05 11:58 | 49.46363 | -3.51127 | 9699 ft | 383 kts | 101° |
| 2026-05-05 11:58 | 49.45737 | -3.47179 | 9071 ft | 380 kts | 101° |
| 2026-05-05 11:58 | 49.45119 | -3.43298 | 8445 ft | 378 kts | 101° |
| 2026-05-05 11:58 | 49.44497 | -3.39397 | 7814 ft | 375 kts | 101° |
| 2026-05-05 11:59 | 49.43879 | -3.35538 | 7185 ft | 373 kts | 101° |
| 2026-05-05 11:59 | 49.43262 | -3.31682 | 6550 ft | 371 kts | 101° |
| 2026-05-05 11:59 | 49.42649 | -3.27864 | 5917 ft | 369 kts | 101° |
| 2026-05-05 11:59 | 49.42034 | -3.24040 | 5282 ft | 367 kts | 101° |
| 2026-05-05 12:00 | 49.41425 | -3.20262 | 4718 ft | 363 kts | 101° |
| 2026-05-05 12:00 | 49.40830 | -3.16578 | 4215 ft | 358 kts | 101° |
| 2026-05-05 12:00 | 49.40229 | -3.12881 | 3704 ft | 353 kts | 101° |
| 2026-05-05 12:00 | 49.39643 | -3.09275 | 3199 ft | 349 kts | 101° |
| 2026-05-05 12:01 | 49.39065 | -3.05716 | 2695 ft | 345 kts | 101° |
| 2026-05-05 12:01 | 49.38485 | -3.02187 | 2216 ft | 341 kts | 103° |
| 2026-05-05 12:01 | 49.37691 | -2.98752 | 2012 ft | 341 kts | 111° |
| 2026-05-05 12:01 | 49.36663 | -2.95493 | 2009 ft | 343 kts | 114° |
| 2026-05-05 12:02 | 49.35574 | -2.92228 | 2006 ft | 344 kts | 114° |
| 2026-05-05 12:02 | 49.34481 | -2.88984 | 2009 ft | 345 kts | 114° |
| 2026-05-05 12:02 | 49.33378 | -2.85705 | 2008 ft | 344 kts | 114° |
| 2026-05-05 12:02 | 49.32294 | -2.82480 | 2007 ft | 343 kts | 114° |
| 2026-05-05 12:03 | 49.31192 | -2.79195 | 2007 ft | 343 kts | 114° |
| 2026-05-05 12:03 | 49.30116 | -2.75990 | 2005 ft | 344 kts | 114° |
| 2026-05-05 12:03 | 49.29022 | -2.72732 | 2007 ft | 343 kts | 114° |
| 2026-05-05 12:03 | 49.27932 | -2.69487 | 2005 ft | 344 kts | 114° |
| 2026-05-05 12:04 | 49.26848 | -2.66264 | 1995 ft | 332 kts | 114° |
| 2026-05-05 12:04 | 49.25811 | -2.63199 | 1993 ft | 315 kts | 114° |
| 2026-05-05 12:04 | 49.24836 | -2.60310 | 2006 ft | 295 kts | 114° |
| 2026-05-05 12:04 | 49.23941 | -2.57669 | 1995 ft | 265 kts | 113° |
| 2026-05-05 12:05 | 49.23137 | -2.55296 | 1992 ft | 238 kts | 113° |
| 2026-05-05 12:05 | 49.22408 | -2.53180 | 1987 ft | 214 kts | 113° |
| 2026-05-05 12:05 | 49.21732 | -2.51261 | 1983 ft | 201 kts | 113° |
| 2026-05-05 12:05 | 49.21081 | -2.49448 | 1981 ft | 189 kts | 112° |
| 2026-05-05 12:06 | 49.20453 | -2.47740 | 1981 ft | 181 kts | 113° |
| 2026-05-05 12:06 | 49.19848 | -2.46129 | 2004 ft | 166 kts | 113° |
| 2026-05-05 12:06 | 49.19273 | -2.44630 | 2024 ft | 162 kts | 113° |
| 2026-05-05 12:06 | 49.18804 | -2.43115 | 1992 ft | 154 kts | 95° |
| 2026-05-05 12:07 | 49.18709 | -2.41517 | 2004 ft | 151 kts | 85° |
| 2026-05-05 12:07 | 49.18704 | -2.39900 | 2002 ft | 150 kts | 84° |
| 2026-05-05 12:07 | 49.18787 | -2.38341 | 2000 ft | 148 kts | 77° |
| 2026-05-05 12:07 | 49.18941 | -2.36805 | 1982 ft | 139 kts | 75° |
| 2026-05-05 12:08 | 49.19091 | -2.35392 | 1999 ft | 135 kts | 74° |
| 2026-05-05 12:08 | 49.19257 | -2.33969 | 1972 ft | 136 kts | 74° |
| 2026-05-05 12:08 | 49.19440 | -2.32569 | 1728 ft | 133 kts | 73° |
| 2026-05-05 12:08 | 49.19617 | -2.31204 | 1542 ft | 128 kts | 75° |
| 2026-05-05 12:09 | 49.19775 | -2.29889 | 1371 ft | 127 kts | 74° |
| 2026-05-05 12:09 | 49.19937 | -2.28564 | 1235 ft | 126 kts | 77° |
| 2026-05-05 12:09 | 49.20091 | -2.27238 | 1076 ft | 127 kts | 76° |
| 2026-05-05 12:09 | 49.20223 | -2.25921 | 920 ft | 126 kts | 78° |
| 2026-05-05 12:10 | 49.20381 | -2.24596 | 730 ft | 125 kts | 76° |
| 2026-05-05 12:10 | 49.20506 | -2.23296 | 593 ft | 125 kts | 79° |
| 2026-05-05 12:10 | 49.20607 | -2.21951 | 444 ft | 126 kts | 82° |
| 2026-05-05 12:10 | 49.20704 | -2.20637 | 301 ft | 124 kts | 79° |
| 2026-05-05 12:11 | 49.20808 | -2.19444 | 275 ft | 83 kts | 80° |
| 2026-05-05 12:11 | 49.20845 | -2.19021 | 275 ft | 0 kts | 84° |
| 2026-05-05 12:11 | 49.20840 | -2.19017 | 275 ft | 1 kts | 183° |
| 2026-05-05 12:11 | 49.20832 | -2.19064 | 275 ft | 12 kts | 260° |
| 2026-05-05 12:12 | 49.20818 | -2.19274 | 274 ft | 21 kts | 266° |
| 2026-05-05 12:12 | 49.20804 | -2.19494 | 275 ft | 20 kts | 263° |
| 2026-05-05 12:12 | 49.20729 | -2.19624 | 272 ft | 16 kts | 179° |
| 2026-05-05 12:12 | 49.20623 | -2.19684 | 271 ft | 17 kts | 211° |
| 2026-05-05 12:13 | 49.20606 | -2.19814 | 268 ft | 13 kts | 264° |
| 2026-05-05 12:13 | 49.20571 | -2.19935 | 268 ft | 12 kts | 183° |
| 2026-05-05 12:13 | 49.20485 | -2.19920 | 268 ft | 13 kts | 172° |
| 2026-05-05 12:13 | 49.20427 | -2.19861 | 267 ft | 9 kts | 89° |
| 2026-05-05 12:14 | 49.20435 | -2.19754 | 270 ft | 13 kts | 79° |
| 2026-05-05 12:14 | 49.20443 | -2.19638 | 270 ft | 9 kts | 56° |
| 2026-05-05 12:14 | 49.20477 | -2.19621 | 271 ft | 5 kts | 15° |
| 2026-05-05 12:14 | 49.20487 | -2.19617 | 271 ft | 0 kts | 16° |